createdAt,value
2018-04-13T00:01:52.579Z,26.07
2018-04-13T00:04:25.956Z,27.10
2018-04-13T00:06:58.600Z,25.97
2018-04-13T00:09:31.205Z,26.30
2018-04-13T00:12:03.852Z,26.87
2018-04-13T00:14:36.456Z,26.93
2018-04-13T00:17:09.871Z,26.33
2018-04-13T00:19:43.284Z,27.87
2018-04-13T00:22:15.917Z,25.63
2018-04-13T00:24:48.537Z,27.20
2018-04-13T00:27:21.960Z,27.37
2018-04-13T00:29:55.336Z,25.23
2018-04-13T00:32:27.981Z,26.77
2018-04-13T00:35:00.586Z,26.43
2018-04-13T00:37:33.238Z,27.10
2018-04-13T00:40:05.855Z,26.90
2018-04-13T00:42:38.495Z,26.67
2018-04-13T00:45:11.103Z,28.03
2018-04-13T00:47:43.752Z,28.30
2018-04-13T00:50:16.355Z,27.83
2018-04-13T00:53:00.848Z,27.37
2018-04-13T00:55:33.453Z,27.17
2018-04-13T00:58:06.104Z,28.67
2018-04-13T01:00:38.708Z,27.63
2018-04-13T01:03:11.334Z,27.00
2018-04-13T01:05:43.940Z,28.30
2018-04-13T01:08:17.348Z,27.20
2018-04-13T01:10:50.725Z,28.27
2018-04-13T01:13:23.428Z,28.87
2018-04-13T01:15:56.203Z,28.10
2018-04-13T01:21:38.874Z,27.20
2018-04-13T01:24:12.387Z,28.23
2018-04-13T01:26:44.996Z,29.40
2018-04-13T01:29:17.632Z,29.53
2018-04-13T01:31:50.245Z,29.00
2018-04-13T01:34:22.881Z,28.73
2018-04-13T01:36:56.256Z,29.80
2018-04-13T01:39:28.885Z,29.23
2018-04-13T01:42:02.269Z,29.57
2018-04-13T01:44:34.896Z,28.77
2018-04-13T01:47:08.280Z,29.40
2018-04-13T01:49:40.923Z,30.17
2018-04-13T01:52:13.531Z,30.50
2018-04-13T01:54:46.180Z,31.03
2018-04-13T01:57:19.551Z,30.53
2018-04-13T01:59:52.175Z,30.13
2018-04-13T02:02:25.551Z,30.00
2018-04-13T02:04:58.205Z,30.23
2018-04-13T02:07:30.816Z,30.00
2018-04-13T02:10:03.473Z,29.37
2018-04-13T02:12:36.232Z,29.93
2018-04-13T02:15:09.749Z,29.10
2018-04-13T02:17:43.187Z,29.83
2018-04-13T02:20:15.830Z,29.40
2018-04-13T02:22:48.435Z,30.60
2018-04-13T02:25:21.079Z,31.80
2018-04-13T02:27:53.679Z,29.30
2018-04-13T02:30:26.308Z,29.73
2018-04-13T02:32:58.929Z,30.73
2018-04-13T02:35:32.320Z,30.57
2018-04-13T02:38:04.925Z,28.20
2018-04-13T02:40:38.339Z,29.83
2018-04-13T02:43:11.708Z,31.23
2018-04-13T02:45:44.354Z,28.97
2018-04-13T02:48:16.960Z,31.33
2018-04-13T02:50:49.588Z,29.97
2018-04-13T02:53:22.188Z,31.37
2018-04-13T02:55:54.832Z,31.23
2018-04-13T02:58:27.436Z,31.37
2018-04-13T03:01:00.082Z,31.43
2018-04-13T03:03:33.450Z,30.00
2018-04-13T03:06:06.103Z,30.83
2018-04-13T03:08:38.705Z,30.77
2018-04-13T03:11:11.351Z,31.80
2018-04-13T03:13:43.956Z,30.60
2018-04-13T03:16:17.368Z,30.50
2018-04-13T03:18:50.756Z,31.40
2018-04-13T03:21:23.384Z,30.93
2018-04-13T03:23:55.992Z,31.27
2018-04-13T03:26:28.643Z,31.37
2018-04-13T03:29:01.249Z,29.30
2018-04-13T03:31:34.662Z,29.93
2018-04-13T03:34:08.028Z,31.73
2018-04-13T03:36:40.652Z,31.13
2018-04-13T03:39:14.021Z,30.37
2018-04-13T03:41:46.648Z,30.03
2018-04-13T03:44:19.255Z,30.40
2018-04-13T03:46:52.647Z,30.53
2018-04-13T03:49:25.272Z,30.33
2018-04-13T03:51:57.892Z,30.50
2018-04-13T03:54:30.518Z,29.83
2018-04-13T03:57:03.919Z,30.63
2018-04-13T03:59:36.523Z,30.67
2018-04-13T04:02:09.188Z,31.10
2018-04-13T04:04:41.763Z,29.80
2018-04-13T04:07:14.391Z,30.13
2018-04-13T04:09:46.997Z,29.70
2018-04-13T04:12:19.620Z,30.80
2018-04-13T04:14:52.218Z,30.00
2018-04-13T04:17:24.846Z,30.33
2018-04-13T04:20:09.457Z,30.60
2018-04-13T04:22:53.919Z,29.10
2018-04-13T04:25:39.190Z,30.53
2018-04-13T04:28:11.820Z,30.37
2018-04-13T04:30:44.439Z,30.50
2018-04-13T04:33:17.087Z,30.80
2018-04-13T04:35:50.742Z,30.37
2018-04-13T04:38:45.920Z,29.33
2018-04-13T04:41:19.300Z,30.70
2018-04-13T04:43:51.925Z,29.53
2018-04-13T04:46:25.296Z,28.80
2018-04-13T04:48:57.949Z,30.43
2018-04-13T04:51:31.323Z,29.50
2018-04-13T04:54:04.735Z,27.60
2018-04-13T04:56:38.104Z,27.90
2018-04-13T04:59:10.747Z,27.97
2018-04-13T05:01:43.383Z,28.73
2018-04-13T05:04:18.226Z,29.03
2018-04-13T05:06:50.828Z,28.57
2018-04-13T05:09:23.549Z,30.40
2018-04-13T05:11:56.177Z,28.13
2018-04-13T05:14:28.805Z,29.00
2018-04-13T05:17:01.430Z,28.70
2018-04-13T05:19:35.515Z,27.27
2018-04-13T05:22:08.961Z,27.50
2018-04-13T05:24:42.813Z,27.03
2018-04-13T05:27:15.445Z,27.30
2018-04-13T05:29:48.108Z,26.63
2018-04-13T05:32:20.898Z,27.40
2018-04-13T05:34:56.624Z,26.20
2018-04-13T05:37:30.152Z,26.57
2018-04-13T05:40:03.552Z,27.53
2018-04-13T05:42:36.920Z,26.83
2018-04-13T05:45:09.561Z,25.93
2018-04-13T05:47:42.179Z,25.33
2018-04-13T05:50:14.872Z,25.57
2018-04-13T05:52:47.491Z,25.33
2018-04-13T05:55:20.144Z,24.87
2018-04-13T05:57:52.748Z,24.43
2018-04-13T06:00:25.424Z,23.83
2018-04-13T06:02:58.027Z,21.57
2018-04-13T06:05:30.673Z,23.97
2018-04-13T06:08:03.288Z,23.07
2018-04-13T06:10:36.700Z,22.03
2018-04-13T06:13:10.075Z,20.53
2018-04-13T06:15:42.751Z,19.93
2018-04-13T06:18:15.372Z,20.03
2018-04-13T06:20:48.020Z,19.13
2018-04-13T06:23:20.632Z,19.33
2018-04-13T06:25:53.259Z,20.63
2018-04-13T06:28:26.640Z,20.47
2018-04-13T06:30:59.292Z,21.63
2018-04-13T06:33:31.899Z,20.33
2018-04-13T06:36:04.528Z,22.33
2018-04-13T06:38:37.132Z,23.20
2018-04-13T06:41:10.548Z,23.47
2018-04-13T06:43:43.993Z,22.23
2018-04-13T06:46:17.371Z,23.03
2018-04-13T06:48:50.834Z,21.97
2018-04-13T06:51:24.173Z,22.83
2018-04-13T06:53:56.776Z,22.63
2018-04-13T06:56:30.200Z,22.53
2018-04-13T06:59:02.818Z,23.10
2018-04-13T07:01:35.453Z,22.13
2018-04-13T07:04:08.060Z,22.93
2018-04-13T07:06:41.477Z,22.90
2018-04-13T07:09:14.100Z,22.07
2018-04-13T07:11:46.752Z,22.07
2018-04-13T07:14:20.140Z,22.03
2018-04-13T07:16:52.835Z,20.87
2018-04-13T07:19:25.448Z,21.97
2018-04-13T07:21:58.863Z,20.90
2018-04-13T07:24:32.245Z,19.70
2018-04-13T07:27:04.895Z,19.23
2018-04-13T07:29:37.505Z,17.70
2018-04-13T07:32:10.162Z,17.90
2018-04-13T07:34:42.780Z,19.30
2018-04-13T07:37:15.785Z,19.90
2018-04-13T07:39:48.803Z,20.43
2018-04-13T07:42:21.444Z,20.87
2018-04-13T07:44:54.121Z,20.67
2018-04-13T07:47:26.727Z,21.87
2018-04-13T07:49:59.570Z,21.20
2018-04-13T07:52:32.023Z,22.33
2018-04-13T07:55:04.638Z,22.27
2018-04-13T07:57:37.291Z,23.10
2018-04-13T08:00:09.908Z,22.07
2018-04-13T08:02:42.562Z,24.37
2018-04-13T08:05:15.204Z,23.63
2018-04-13T08:07:47.831Z,24.83
2018-04-13T08:10:20.440Z,24.57
2018-04-13T08:12:53.859Z,25.27
2018-04-13T08:15:26.801Z,25.20
2018-04-13T08:17:59.206Z,24.03
2018-04-13T08:20:31.779Z,24.73
2018-04-13T08:23:04.427Z,23.03
2018-04-13T08:25:37.065Z,22.03
2018-04-13T08:28:09.729Z,23.10
2018-04-13T08:30:42.380Z,21.20
2018-04-13T08:33:15.036Z,23.03
2018-04-13T08:35:47.655Z,23.27
2018-04-13T08:38:20.335Z,23.73
2018-04-13T08:40:52.931Z,22.80
2018-04-13T08:43:25.576Z,23.17
2018-04-13T08:45:58.189Z,22.93
2018-04-13T08:48:45.169Z,24.03
2018-04-13T08:51:17.666Z,24.60
2018-04-13T08:53:50.318Z,23.43
2018-04-13T08:56:22.940Z,25.10
2018-04-13T08:58:56.360Z,24.80
2018-04-13T09:01:29.739Z,25.17
2018-04-13T09:04:02.398Z,24.97
2018-04-13T09:06:35.034Z,25.53
2018-04-13T09:09:08.456Z,24.40
2018-04-13T09:11:41.841Z,24.23
2018-04-13T09:14:14.491Z,24.70
2018-04-13T09:16:47.117Z,23.80
2018-04-13T09:19:19.757Z,24.53
2018-04-13T09:21:52.366Z,24.13
2018-04-13T09:24:25.024Z,25.83
2018-04-13T09:26:58.408Z,26.27
2018-04-13T09:29:31.055Z,24.77
2018-04-13T09:32:03.676Z,24.83
2018-04-13T09:34:36.329Z,23.20
2018-04-13T09:37:08.939Z,23.83
2018-04-13T09:39:41.569Z,23.93
2018-04-13T09:42:14.203Z,23.50
2018-04-13T09:44:46.864Z,23.40
2018-04-13T09:47:19.476Z,23.40
2018-04-13T09:49:52.133Z,23.63
2018-04-13T09:52:24.745Z,24.53
2018-04-13T09:54:58.176Z,23.37
2018-04-13T09:57:30.805Z,23.87
2018-04-13T10:00:03.452Z,23.60
2018-04-13T10:02:38.021Z,24.13
2018-04-13T10:05:16.624Z,24.60
2018-04-13T10:07:49.234Z,23.90
2018-04-13T10:10:21.877Z,25.47
2018-04-13T10:12:54.492Z,25.93
2018-04-13T10:15:27.115Z,24.53
2018-04-13T10:17:59.724Z,25.57
2018-04-13T10:20:32.377Z,23.97
2018-04-13T10:23:05.008Z,22.17
2018-04-13T10:25:37.643Z,23.07
2018-04-13T10:28:11.012Z,21.03
2018-04-13T10:30:43.665Z,22.67
2018-04-13T10:33:16.271Z,21.90
2018-04-13T10:35:48.923Z,21.70
2018-04-13T10:38:22.298Z,22.13
2018-04-13T10:40:54.946Z,20.17
2018-04-13T10:43:27.553Z,21.37
2018-04-13T10:46:00.213Z,21.17
2018-04-13T10:48:33.595Z,20.63
2018-04-13T10:51:06.233Z,20.47
2018-04-13T10:53:38.839Z,20.33
2018-04-13T10:56:11.511Z,18.40
2018-04-13T10:58:44.130Z,17.30
2018-04-13T11:01:16.802Z,17.00
2018-04-13T11:03:49.413Z,18.77
2018-04-13T11:06:22.060Z,18.47
2018-04-13T11:08:55.437Z,17.97
2018-04-13T11:11:28.091Z,17.20
2018-04-13T11:14:00.736Z,17.60
2018-04-13T11:16:33.388Z,18.10
2018-04-13T11:19:06.000Z,18.63
2018-04-13T11:21:38.637Z,17.73
2018-04-13T11:24:12.008Z,17.23
2018-04-13T11:26:44.712Z,17.90
2018-04-13T11:29:17.343Z,19.03
2018-04-13T11:31:50.012Z,17.60
2018-04-13T11:34:23.384Z,19.33
2018-04-13T11:36:56.031Z,20.00
2018-04-13T11:39:28.636Z,21.40
2018-04-13T11:42:01.264Z,22.40
2018-04-13T11:44:33.872Z,20.30
2018-04-13T11:47:06.529Z,22.07
2018-04-13T11:49:39.132Z,22.40
2018-04-13T11:52:11.762Z,21.60
2018-04-13T11:54:45.153Z,22.83
2018-04-13T11:57:17.848Z,23.03
2018-04-13T11:59:51.251Z,22.13
2018-04-13T12:02:23.924Z,21.00
2018-04-13T12:04:56.511Z,20.83
2018-04-13T12:07:29.148Z,20.80
2018-04-13T12:10:02.523Z,21.73
2018-04-13T12:12:35.172Z,22.77
2018-04-13T12:15:07.776Z,21.47
2018-04-13T12:17:40.424Z,19.93
2018-04-13T12:20:13.030Z,17.77
2018-04-13T12:22:46.494Z,18.70
2018-04-13T12:25:19.121Z,17.93
2018-04-13T12:27:51.764Z,18.13
2018-04-13T12:30:24.372Z,17.10
2018-04-13T12:32:57.003Z,18.10
2018-04-13T12:35:30.377Z,15.97
2018-04-13T12:38:03.039Z,17.37
2018-04-13T12:40:35.647Z,16.73
2018-04-13T12:43:08.302Z,17.53
2018-04-13T12:45:40.920Z,16.30
2018-04-13T12:48:13.597Z,14.70
2018-04-13T12:50:46.226Z,12.53
2018-04-13T12:53:18.953Z,14.27
2018-04-13T12:55:51.540Z,12.43
2018-04-13T12:58:24.196Z,12.50
2018-04-13T13:00:56.825Z,12.40
2018-04-13T13:03:29.541Z,11.97
2018-04-13T13:06:02.171Z,11.33
2018-04-13T13:08:35.063Z,9.67
2018-04-13T13:11:07.725Z,10.30
2018-04-13T13:13:40.365Z,9.60
2018-04-13T13:16:12.999Z,9.03
2018-04-13T13:18:46.426Z,7.37
2018-04-13T13:21:19.044Z,8.30
2018-04-13T13:23:51.688Z,7.67
2018-04-13T13:26:24.323Z,7.47
2018-04-13T13:28:56.972Z,7.07
2018-04-13T13:31:30.349Z,7.30
2018-04-13T13:34:03.043Z,6.73
2018-04-13T13:36:35.681Z,6.13
2018-04-13T13:39:08.871Z,6.73
2018-04-13T13:41:42.272Z,6.03
2018-04-13T13:44:14.931Z,6.07
2018-04-13T13:46:47.552Z,5.63
2018-04-13T13:49:20.196Z,5.53
2018-04-13T13:51:52.831Z,5.27
2018-04-13T13:54:25.508Z,5.50
2018-04-13T13:56:58.108Z,5.50
2018-04-13T13:59:30.740Z,5.57
2018-04-13T14:02:04.116Z,5.20
2018-04-13T14:04:36.757Z,4.77
2018-04-13T14:07:09.366Z,4.37
2018-04-13T14:09:41.988Z,4.60
2018-04-13T14:12:14.588Z,4.37
2018-04-13T14:14:47.267Z,3.97
2018-04-13T14:17:19.876Z,4.33
2018-04-13T14:19:52.505Z,4.50
2018-04-13T14:22:25.107Z,4.10
2018-04-13T14:24:57.754Z,4.03
2018-04-13T14:27:30.368Z,3.97
2018-04-13T14:30:03.006Z,4.50
2018-04-13T14:32:35.615Z,4.50
2018-04-13T14:35:08.257Z,4.00
2018-04-13T14:37:40.857Z,4.00
2018-04-13T14:40:13.487Z,5.13
2018-04-13T14:42:46.096Z,3.80
2018-04-13T14:45:18.736Z,4.70
2018-04-13T14:47:58.412Z,3.87
2018-04-13T14:50:31.040Z,8.67
2018-04-13T14:53:04.452Z,21.70
2018-04-13T14:55:37.863Z,3.83
2018-04-13T14:58:11.233Z,3.70
2018-04-13T15:00:43.947Z,4.03
2018-04-13T15:03:17.352Z,4.00
2018-04-13T15:05:49.976Z,4.03
2018-04-13T15:08:23.387Z,4.10
2018-04-13T15:10:56.044Z,4.53
2018-04-13T15:13:29.641Z,4.73
2018-04-13T15:16:02.339Z,4.20
2018-04-13T15:18:37.964Z,4.60
2018-04-13T15:21:11.475Z,4.83
2018-04-13T15:23:44.083Z,5.03
2018-04-13T15:26:16.732Z,4.93
2018-04-13T15:28:50.130Z,5.93
2018-04-13T15:31:22.779Z,5.27
2018-04-13T15:33:55.383Z,5.30
2018-04-13T15:36:28.008Z,4.50
2018-04-13T15:39:00.628Z,5.17
2018-04-13T15:41:33.260Z,5.00
2018-04-13T15:44:05.888Z,4.97
2018-04-13T15:46:39.304Z,4.37
2018-04-13T15:49:12.671Z,4.60
2018-04-13T15:51:45.328Z,3.80
2018-04-13T15:54:17.954Z,4.30
2018-04-13T15:56:50.598Z,4.80
2018-04-13T15:59:24.292Z,4.10
2018-04-13T16:01:56.917Z,3.80
2018-04-13T16:04:29.525Z,3.30
2018-04-13T16:07:02.964Z,3.60
2018-04-13T16:09:35.575Z,4.03
2018-04-13T16:12:08.274Z,3.80
2018-04-13T16:14:40.873Z,3.63
2018-04-13T16:17:14.280Z,4.10
2018-04-13T16:19:47.676Z,3.93
2018-04-13T16:22:20.302Z,4.00
2018-04-13T16:24:52.919Z,3.70
2018-04-13T16:27:25.546Z,4.37
2018-04-13T16:29:58.148Z,4.20
2018-04-13T16:32:30.784Z,4.33
2018-04-13T16:35:03.400Z,4.63
2018-04-13T16:37:36.048Z,4.93
2018-04-13T16:40:08.652Z,4.30
2018-04-13T16:42:41.311Z,6.10
2018-04-13T16:45:14.697Z,4.37
2018-04-13T16:47:47.370Z,5.43
2018-04-13T16:50:32.829Z,6.00
2018-04-13T16:53:05.494Z,4.20
2018-04-13T16:55:38.879Z,3.97
2018-04-13T16:58:11.512Z,4.33
2018-04-13T17:00:44.897Z,4.50
2018-04-13T17:03:17.555Z,3.93
2018-04-13T17:05:50.232Z,4.30
2018-04-13T17:08:22.921Z,4.33
2018-04-13T17:10:57.571Z,4.13
2018-04-13T17:13:32.107Z,4.37
2018-04-13T17:16:04.736Z,3.90
2018-04-13T17:18:37.412Z,3.77
2018-04-13T17:21:10.647Z,3.87
2018-04-13T17:23:43.400Z,3.90
2018-04-13T17:26:16.041Z,4.00
2018-04-13T17:28:49.465Z,3.60
2018-04-13T17:31:22.856Z,3.60
2018-04-13T17:33:55.479Z,3.60
2018-04-13T17:36:28.084Z,4.23
2018-04-13T17:39:00.748Z,4.53
2018-04-13T17:41:34.119Z,3.93
2018-04-13T17:44:06.749Z,4.70
2018-04-13T17:46:40.123Z,3.83
2018-04-13T17:49:12.790Z,3.80
2018-04-13T17:51:45.431Z,4.20
2018-04-13T17:54:18.073Z,3.93
2018-04-13T17:56:50.683Z,4.60
2018-04-13T17:59:23.312Z,4.13
2018-04-13T18:01:55.920Z,4.43
2018-04-13T18:04:28.656Z,4.40
2018-04-13T18:07:01.308Z,4.30
2018-04-13T18:09:34.006Z,3.60
2018-04-13T18:12:06.734Z,3.40
2018-04-13T18:14:39.389Z,4.10
2018-04-13T18:17:12.003Z,3.40
2018-04-13T18:19:44.677Z,3.27
2018-04-13T18:22:17.293Z,3.80
2018-04-13T18:24:50.072Z,3.90
2018-04-13T18:27:22.671Z,3.30
2018-04-13T18:29:55.348Z,3.50
2018-04-13T18:32:27.957Z,4.80
2018-04-13T18:35:00.653Z,4.10
2018-04-13T18:37:33.545Z,5.87
2018-04-13T18:43:04.036Z,5.77
2018-04-13T18:45:36.759Z,4.90
2018-04-13T18:48:09.371Z,4.90
2018-04-13T18:50:42.791Z,4.27
2018-04-13T18:53:16.160Z,4.20
2018-04-13T18:55:48.792Z,4.30
2018-04-13T18:58:22.179Z,5.20
2018-04-13T19:00:55.657Z,2.50
2018-04-13T19:03:28.321Z,1.80
2018-04-13T19:06:01.715Z,2.90
2018-04-13T19:08:34.328Z,1.80
2018-04-13T19:11:06.952Z,2.30
2018-04-13T19:13:39.596Z,2.13
2018-04-13T19:16:12.230Z,1.97
2018-04-13T19:18:44.840Z,2.00
2018-04-13T19:21:17.480Z,2.00
2018-04-13T19:23:50.086Z,2.27
2018-04-13T19:26:22.789Z,2.67
2018-04-13T19:28:55.400Z,2.37
2018-04-13T19:31:28.052Z,2.63
2018-04-13T19:34:00.656Z,2.67
2018-04-13T19:36:33.271Z,2.23
2018-04-13T19:39:05.871Z,2.50
2018-04-13T19:41:38.497Z,4.23
2018-04-13T19:44:12.004Z,25.63
2018-04-13T19:46:45.432Z,6.67
2018-04-13T19:49:18.037Z,4.30
2018-04-13T19:51:50.663Z,2.53
2018-04-13T19:54:26.871Z,2.50
2018-04-13T19:56:59.668Z,2.80
2018-04-13T19:59:33.069Z,3.10
2018-04-13T20:02:06.465Z,3.53
2018-04-13T20:04:39.081Z,5.33
2018-04-13T20:07:11.818Z,2.70
2018-04-13T20:09:44.485Z,2.50
2018-04-13T20:12:19.993Z,2.83
2018-04-13T20:14:52.591Z,2.53
2018-04-13T20:17:46.452Z,2.90
2018-04-13T20:20:19.056Z,2.80
2018-04-13T20:22:51.692Z,2.60
2018-04-13T20:25:25.059Z,2.73
2018-04-13T20:27:57.683Z,3.00
2018-04-13T20:30:31.089Z,3.20
2018-04-13T20:33:03.971Z,2.40
2018-04-13T20:35:48.264Z,3.57
2018-04-13T20:38:21.651Z,2.90
2018-04-13T20:40:54.244Z,3.10
2018-04-13T20:43:26.888Z,2.93
2018-04-13T20:45:59.503Z,3.10
2018-04-13T20:48:32.146Z,3.13
2018-04-13T20:51:05.516Z,3.13
2018-04-13T20:53:38.165Z,3.13
2018-04-13T20:56:10.773Z,3.67
2018-04-13T20:58:43.391Z,4.10
2018-04-13T21:01:16.016Z,3.37
2018-04-13T21:03:49.407Z,3.70
2018-04-13T21:06:22.007Z,4.00
2018-04-13T21:08:55.392Z,3.50
2018-04-13T21:11:28.007Z,3.10
2018-04-13T21:14:01.437Z,3.20
2018-04-13T21:16:34.039Z,4.30
2018-04-13T21:19:06.680Z,3.97
2018-04-13T21:21:39.295Z,3.43
2018-04-13T21:24:12.703Z,3.57
2018-04-13T21:26:45.304Z,3.20
2018-04-13T21:29:18.706Z,3.70
2018-04-13T21:31:52.091Z,3.50
2018-04-13T21:34:24.717Z,3.30
2018-04-13T21:36:58.096Z,3.27
2018-04-13T21:39:30.751Z,3.50
2018-04-13T21:42:03.358Z,3.40
2018-04-13T21:44:36.004Z,3.30
2018-04-13T21:47:08.603Z,3.60
2018-04-13T21:49:41.228Z,4.60
2018-04-13T21:52:13.840Z,4.67
2018-04-13T21:54:46.500Z,4.93
2018-04-13T21:57:19.112Z,4.17
2018-04-13T21:59:51.756Z,3.57
2018-04-13T22:02:24.363Z,3.50
2018-04-13T22:04:56.983Z,3.60
2018-04-13T22:07:29.590Z,3.30
2018-04-13T22:10:02.225Z,2.93
2018-04-13T22:12:46.797Z,3.63
2018-04-13T22:15:26.267Z,3.03
2018-04-13T22:17:58.872Z,3.50
2018-04-13T22:20:31.491Z,3.20
2018-04-13T22:23:04.096Z,3.50
2018-04-13T22:25:36.741Z,3.73
2018-04-13T22:28:09.353Z,3.47
2018-04-13T22:30:41.995Z,3.70
2018-04-13T22:33:14.616Z,3.90
2018-04-13T22:35:47.263Z,4.30
2018-04-13T22:38:20.635Z,4.20
2018-04-13T22:40:53.259Z,4.60
2018-04-13T22:43:26.627Z,5.47
2018-04-13T22:45:59.274Z,5.03
2018-04-13T22:48:32.644Z,5.03
2018-04-13T22:51:05.288Z,5.43
2018-04-13T22:53:37.893Z,5.63
2018-04-13T22:56:10.515Z,4.97
2018-04-13T22:58:43.117Z,5.50
2018-04-13T23:01:15.768Z,6.80
2018-04-13T23:03:48.372Z,5.53
2018-04-13T23:06:21.020Z,6.90
2018-04-13T23:08:54.400Z,6.93
2018-04-13T23:11:27.037Z,6.70
2018-04-13T23:13:59.647Z,6.80
2018-04-13T23:16:32.295Z,6.47
2018-04-13T23:19:05.713Z,7.43
2018-04-13T23:21:38.330Z,7.20
2018-04-13T23:24:10.967Z,7.10
2018-04-13T23:26:43.613Z,6.20
2018-04-13T23:29:16.211Z,6.73
2018-04-13T23:31:48.832Z,6.40
2018-04-13T23:34:21.436Z,7.00
2018-04-13T23:36:54.057Z,6.10
2018-04-13T23:39:27.587Z,6.63
2018-04-13T23:42:00.332Z,7.17
2018-04-13T23:44:32.937Z,6.80
2018-04-13T23:47:06.351Z,6.87
2018-04-13T23:49:39.719Z,6.07
2018-04-13T23:52:12.353Z,5.93
2018-04-13T23:54:45.731Z,5.70
2018-04-13T23:57:18.363Z,5.83
2018-04-13T23:59:51.753Z,6.20
